sensor_id;sensor_type;location;lat;lon;timestamp;pressure;altitude;pressure_sealevel;temperature;humidity
21290;BME280;10804;48.988;2.408;2023-02-26T00:00:16;100882.28;;;8.78;64.51
21290;BME280;10804;48.988;2.408;2023-02-26T00:02:46;100889.22;;;8.76;64.55
21290;BME280;10804;48.988;2.408;2023-02-26T00:05:15;100893.63;;;8.72;63.78
21290;BME280;10804;48.988;2.408;2023-02-26T00:07:42;100892.78;;;8.72;63.92
21290;BME280;10804;48.988;2.408;2023-02-26T00:10:12;100891.00;;;8.72;64.17
21290;BME280;10804;48.988;2.408;2023-02-26T00:12:40;100891.06;;;8.71;64.57
21290;BME280;10804;48.988;2.408;2023-02-26T00:15:10;100899.72;;;8.70;64.00
21290;BME280;10804;48.988;2.408;2023-02-26T00:17:47;100891.06;;;8.69;64.71
21290;BME280;10804;48.988;2.408;2023-02-26T00:20:17;100905.84;;;8.66;64.29
21290;BME280;10804;48.988;2.408;2023-02-26T00:22:45;100913.72;;;8.63;63.96
21290;BME280;10804;48.988;2.408;2023-02-26T00:25:13;100905.03;;;8.64;64.27
21290;BME280;10804;48.988;2.408;2023-02-26T00:27:41;100909.38;;;8.62;63.98
21290;BME280;10804;48.988;2.408;2023-02-26T00:30:10;100910.31;;;8.58;64.31
21290;BME280;10804;48.988;2.408;2023-02-26T00:32:39;100915.50;;;8.58;63.73
21290;BME280;10804;48.988;2.408;2023-02-26T00:35:11;100921.63;;;8.55;64.17
21290;BME280;10804;48.988;2.408;2023-02-26T00:37:54;100916.41;;;8.55;63.75
21290;BME280;10804;48.988;2.408;2023-02-26T00:40:32;100928.59;;;8.53;64.20
21290;BME280;10804;48.988;2.408;2023-02-26T00:43:01;100929.47;;;8.51;63.75
21290;BME280;10804;48.988;2.408;2023-02-26T00:45:29;100933.84;;;8.49;64.52
21290;BME280;10804;48.988;2.408;2023-02-26T00:48:11;100936.44;;;8.49;63.84
21290;BME280;10804;48.988;2.408;2023-02-26T00:50:46;100925.19;;;8.47;64.35
21290;BME280;10804;48.988;2.408;2023-02-26T00:53:21;100925.25;;;8.42;64.21
21290;BME280;10804;48.988;2.408;2023-02-26T00:55:51;100943.50;;;8.41;64.04
21290;BME280;10804;48.988;2.408;2023-02-26T00:58:18;100940.88;;;8.41;64.49
21290;BME280;10804;48.988;2.408;2023-02-26T01:00:46;100936.59;;;8.38;64.21
21290;BME280;10804;48.988;2.408;2023-02-26T01:03:13;100937.44;;;8.39;64.73
21290;BME280;10804;48.988;2.408;2023-02-26T01:05:41;100944.38;;;8.40;64.01
21290;BME280;10804;48.988;2.408;2023-02-26T01:08:14;100945.22;;;8.39;64.03
21290;BME280;10804;48.988;2.408;2023-02-26T01:10:46;100944.47;;;8.31;64.15
21290;BME280;10804;48.988;2.408;2023-02-26T01:13:14;100954.88;;;8.31;64.37
21290;BME280;10804;48.988;2.408;2023-02-26T01:15:46;100947.06;;;8.32;63.86
21290;BME280;10804;48.988;2.408;2023-02-26T01:18:21;100942.75;;;8.30;64.18
21290;BME280;10804;48.988;2.408;2023-02-26T01:20:56;100949.72;;;8.26;64.28
21290;BME280;10804;48.988;2.408;2023-02-26T01:23:26;100941.97;;;8.25;64.49
21290;BME280;10804;48.988;2.408;2023-02-26T01:26:01;100945.41;;;8.27;63.89
21290;BME280;10804;48.988;2.408;2023-02-26T01:28:30;100936.78;;;8.22;64.09
21290;BME280;10804;48.988;2.408;2023-02-26T01:31:02;100942.88;;;8.22;63.97
21290;BME280;10804;48.988;2.408;2023-02-26T01:33:34;100946.34;;;8.18;64.37
21290;BME280;10804;48.988;2.408;2023-02-26T01:36:07;100943.75;;;8.18;64.52
21290;BME280;10804;48.988;2.408;2023-02-26T01:38:39;100940.34;;;8.13;64.20
21290;BME280;10804;48.988;2.408;2023-02-26T01:41:15;100943.81;;;8.12;64.07
21290;BME280;10804;48.988;2.408;2023-02-26T01:43:52;100954.19;;;8.14;64.08
21290;BME280;10804;48.988;2.408;2023-02-26T01:46:27;100960.31;;;8.10;64.34
21290;BME280;10804;48.988;2.408;2023-02-26T01:48:58;100956.84;;;8.08;64.72
21290;BME280;10804;48.988;2.408;2023-02-26T01:51:54;100957.72;;;8.07;64.18
21290;BME280;10804;48.988;2.408;2023-02-26T01:54:23;100959.44;;;8.08;63.84
21290;BME280;10804;48.988;2.408;2023-02-26T01:56:56;100965.56;;;8.04;64.33
21290;BME280;10804;48.988;2.408;2023-02-26T01:59:25;100978.56;;;8.01;64.33
21290;BME280;10804;48.988;2.408;2023-02-26T02:01:55;100964.75;;;8.02;64.00
21290;BME280;10804;48.988;2.408;2023-02-26T02:04:25;100968.22;;;7.98;64.48
21290;BME280;10804;48.988;2.408;2023-02-26T02:06:53;100976.84;;;8.00;64.50
21290;BME280;10804;48.988;2.408;2023-02-26T02:09:20;100970.00;;;7.96;63.85
21290;BME280;10804;48.988;2.408;2023-02-26T02:12:20;100974.38;;;7.92;64.36
21290;BME280;10804;48.988;2.408;2023-02-26T02:14:58;100973.53;;;7.89;64.42
21290;BME280;10804;48.988;2.408;2023-02-26T02:17:37;100977.84;;;7.91;64.10
21290;BME280;10804;48.988;2.408;2023-02-26T02:20:23;100983.03;;;7.90;64.42
21290;BME280;10804;48.988;2.408;2023-02-26T02:23:01;100970.94;;;7.89;64.19
21290;BME280;10804;48.988;2.408;2023-02-26T02:29:01;100970.13;;;7.84;64.69
21290;BME280;10804;48.988;2.408;2023-02-26T02:31:40;100973.59;;;7.83;64.22
21290;BME280;10804;48.988;2.408;2023-02-26T02:34:12;100971.88;;;7.82;64.53
21290;BME280;10804;48.988;2.408;2023-02-26T02:36:48;100983.97;;;7.83;64.28
21290;BME280;10804;48.988;2.408;2023-02-26T02:39:21;100980.59;;;7.76;64.47
21290;BME280;10804;48.988;2.408;2023-02-26T02:41:54;100984.91;;;7.74;64.12
21290;BME280;10804;48.988;2.408;2023-02-26T02:44:25;100982.38;;;7.73;64.29
21290;BME280;10804;48.988;2.408;2023-02-26T02:46:57;100987.56;;;7.70;64.27
21290;BME280;10804;48.988;2.408;2023-02-26T02:49:28;100996.22;;;7.70;64.33
21290;BME280;10804;48.988;2.408;2023-02-26T02:52:01;100990.16;;;7.70;64.25
21290;BME280;10804;48.988;2.408;2023-02-26T02:54:35;100991.91;;;7.69;63.97
21290;BME280;10804;48.988;2.408;2023-02-26T02:57:08;100990.22;;;7.67;64.14
21290;BME280;10804;48.988;2.408;2023-02-26T02:59:43;100987.66;;;7.64;64.09
21290;BME280;10804;48.988;2.408;2023-02-26T03:02:20;100989.38;;;7.65;64.44
21290;BME280;10804;48.988;2.408;2023-02-26T03:04:50;100992.84;;;7.64;64.41
21290;BME280;10804;48.988;2.408;2023-02-26T03:07:17;101006.66;;;7.63;64.30
21290;BME280;10804;48.988;2.408;2023-02-26T03:09:46;101006.72;;;7.60;64.55
21290;BME280;10804;48.988;2.408;2023-02-26T03:12:18;100998.03;;;7.61;64.44
21290;BME280;10804;48.988;2.408;2023-02-26T03:14:46;101007.59;;;7.59;64.52
21290;BME280;10804;48.988;2.408;2023-02-26T03:17:24;101014.53;;;7.57;64.74
21290;BME280;10804;48.988;2.408;2023-02-26T03:20:07;101005.03;;;7.56;64.11
21290;BME280;10804;48.988;2.408;2023-02-26T03:22:42;101008.50;;;7.52;64.38
21290;BME280;10804;48.988;2.408;2023-02-26T03:25:23;101007.63;;;7.53;64.30
21290;BME280;10804;48.988;2.408;2023-02-26T03:27:58;101017.19;;;7.51;64.17
21290;BME280;10804;48.988;2.408;2023-02-26T03:30:33;101018.94;;;7.49;64.43
21290;BME280;10804;48.988;2.408;2023-02-26T03:33:09;101018.06;;;7.48;63.99
21290;BME280;10804;48.988;2.408;2023-02-26T03:35:46;101020.63;;;7.53;63.79
21290;BME280;10804;48.988;2.408;2023-02-26T03:38:20;101026.75;;;7.45;64.09
21290;BME280;10804;48.988;2.408;2023-02-26T03:40:53;101029.31;;;7.46;64.49
21290;BME280;10804;48.988;2.408;2023-02-26T03:43:26;101033.66;;;7.46;64.17
21290;BME280;10804;48.988;2.408;2023-02-26T03:45:59;101036.25;;;7.44;64.62
21290;BME280;10804;48.988;2.408;2023-02-26T03:48:33;101038.91;;;7.41;64.11
21290;BME280;10804;48.988;2.408;2023-02-26T03:51:05;101039.75;;;7.43;64.24
21290;BME280;10804;48.988;2.408;2023-02-26T03:53:52;101031.13;;;7.38;64.44
21290;BME280;10804;48.988;2.408;2023-02-26T03:56:28;101041.50;;;7.38;64.42
21290;BME280;10804;48.988;2.408;2023-02-26T03:59:29;101038.03;;;7.39;64.25
21290;BME280;10804;48.988;2.408;2023-02-26T04:02:27;101038.94;;;7.37;64.27
21290;BME280;10804;48.988;2.408;2023-02-26T04:05:14;101036.34;;;7.32;64.21
21290;BME280;10804;48.988;2.408;2023-02-26T04:07:43;101045.88;;;7.33;64.15
21290;BME280;10804;48.988;2.408;2023-02-26T04:10:14;101045.88;;;7.30;64.25
21290;BME280;10804;48.988;2.408;2023-02-26T04:12:42;101048.47;;;7.29;64.29
21290;BME280;10804;48.988;2.408;2023-02-26T04:15:10;101051.09;;;7.27;64.50
21290;BME280;10804;48.988;2.408;2023-02-26T04:17:38;101052.81;;;7.28;64.43
21290;BME280;10804;48.988;2.408;2023-02-26T04:20:07;101045.06;;;7.24;64.34
21290;BME280;10804;48.988;2.408;2023-02-26T04:22:37;101050.25;;;7.22;64.47
21290;BME280;10804;48.988;2.408;2023-02-26T04:25:05;101056.31;;;7.23;64.80
21290;BME280;10804;48.988;2.408;2023-02-26T04:27:32;101059.75;;;7.23;64.23
21290;BME280;10804;48.988;2.408;2023-02-26T04:30:00;101057.19;;;7.17;64.24
21290;BME280;10804;48.988;2.408;2023-02-26T04:32:28;101053.72;;;7.21;64.34
21290;BME280;10804;48.988;2.408;2023-02-26T04:34:55;101062.38;;;7.17;64.67
21290;BME280;10804;48.988;2.408;2023-02-26T04:37:23;101063.31;;;7.12;64.53
21290;BME280;10804;48.988;2.408;2023-02-26T04:39:52;101066.72;;;7.15;64.47
21290;BME280;10804;48.988;2.408;2023-02-26T04:42:19;101076.22;;;7.18;64.13
21290;BME280;10804;48.988;2.408;2023-02-26T04:44:47;101080.56;;;7.14;64.30
21290;BME280;10804;48.988;2.408;2023-02-26T04:47:15;101088.34;;;7.14;64.36
21290;BME280;10804;48.988;2.408;2023-02-26T04:49:43;101081.47;;;7.10;64.45
21290;BME280;10804;48.988;2.408;2023-02-26T04:52:11;101084.94;;;7.08;64.49
21290;BME280;10804;48.988;2.408;2023-02-26T04:54:38;101082.34;;;7.05;64.36
21290;BME280;10804;48.988;2.408;2023-02-26T04:57:09;101093.59;;;7.05;64.66
21290;BME280;10804;48.988;2.408;2023-02-26T04:59:37;101087.56;;;7.00;64.38
21290;BME280;10804;48.988;2.408;2023-02-26T05:02:06;101088.41;;;7.02;64.47
21290;BME280;10804;48.988;2.408;2023-02-26T05:04:37;101084.09;;;7.01;64.92
21290;BME280;10804;48.988;2.408;2023-02-26T05:07:05;101093.63;;;6.99;64.64
21290;BME280;10804;48.988;2.408;2023-02-26T05:09:32;101091.91;;;6.97;64.39
21290;BME280;10804;48.988;2.408;2023-02-26T05:11:59;101096.19;;;7.02;64.66
21290;BME280;10804;48.988;2.408;2023-02-26T05:14:28;101090.19;;;6.97;64.41
21290;BME280;10804;48.988;2.408;2023-02-26T05:16:57;101091.94;;;6.92;64.32
21290;BME280;10804;48.988;2.408;2023-02-26T05:19:25;101089.34;;;6.94;64.54
21290;BME280;10804;48.988;2.408;2023-02-26T05:21:52;101088.50;;;6.90;64.51
21290;BME280;10804;48.988;2.408;2023-02-26T05:24:20;101083.31;;;6.90;64.67
21290;BME280;10804;48.988;2.408;2023-02-26T05:26:47;101087.66;;;6.88;64.46
21290;BME280;10804;48.988;2.408;2023-02-26T05:29:14;101091.09;;;6.89;64.30
21290;BME280;10804;48.988;2.408;2023-02-26T05:31:45;101090.25;;;6.88;64.63
21290;BME280;10804;48.988;2.408;2023-02-26T05:34:12;101085.06;;;6.85;64.90
21290;BME280;10804;48.988;2.408;2023-02-26T05:36:39;101089.41;;;6.85;64.38
21290;BME280;10804;48.988;2.408;2023-02-26T05:39:08;101092.00;;;6.85;64.77
21290;BME280;10804;48.988;2.408;2023-02-26T05:41:35;101088.53;;;6.78;64.44
21290;BME280;10804;48.988;2.408;2023-02-26T05:44:02;101086.81;;;6.82;64.35
21290;BME280;10804;48.988;2.408;2023-02-26T05:46:30;101091.13;;;6.80;64.79
21290;BME280;10804;48.988;2.408;2023-02-26T05:48:59;101086.84;;;6.79;64.34
21290;BME280;10804;48.988;2.408;2023-02-26T05:51:26;101090.28;;;6.78;64.33
21290;BME280;10804;48.988;2.408;2023-02-26T05:53:54;101088.56;;;6.75;64.60
21290;BME280;10804;48.988;2.408;2023-02-26T05:56:21;101090.28;;;6.76;64.79
21290;BME280;10804;48.988;2.408;2023-02-26T05:58:48;101091.16;;;6.75;64.42
21290;BME280;10804;48.988;2.408;2023-02-26T06:01:16;101090.31;;;6.73;64.38
21290;BME280;10804;48.988;2.408;2023-02-26T06:03:43;101099.81;;;6.71;64.36
21290;BME280;10804;48.988;2.408;2023-02-26T06:06:12;101107.59;;;6.73;64.53
21290;BME280;10804;48.988;2.408;2023-02-26T06:08:41;101111.06;;;6.69;64.66
21290;BME280;10804;48.988;2.408;2023-02-26T06:11:08;101115.38;;;6.67;64.92
21290;BME280;10804;48.988;2.408;2023-02-26T06:13:36;101124.88;;;6.68;64.63
21290;BME280;10804;48.988;2.408;2023-02-26T06:16:03;101124.91;;;6.66;64.38
21290;BME280;10804;48.988;2.408;2023-02-26T06:18:31;101127.50;;;6.66;64.48
21290;BME280;10804;48.988;2.408;2023-02-26T06:20:59;101132.66;;;6.63;64.56
21290;BME280;10804;48.988;2.408;2023-02-26T06:23:30;101135.25;;;6.63;64.64
21290;BME280;10804;48.988;2.408;2023-02-26T06:25:58;101137.00;;;6.61;64.71
21290;BME280;10804;48.988;2.408;2023-02-26T06:28:25;101140.44;;;6.63;64.37
21290;BME280;10804;48.988;2.408;2023-02-26T06:30:52;101143.91;;;6.56;64.78
21290;BME280;10804;48.988;2.408;2023-02-26T06:33:20;101142.19;;;6.57;64.93
21290;BME280;10804;48.988;2.408;2023-02-26T06:35:47;101138.75;;;6.53;64.47
21290;BME280;10804;48.988;2.408;2023-02-26T06:38:15;101148.25;;;6.51;64.70
21290;BME280;10804;48.988;2.408;2023-02-26T06:40:46;101147.41;;;6.54;64.63
21290;BME280;10804;48.988;2.408;2023-02-26T06:43:13;101146.50;;;6.56;64.64
21290;BME280;10804;48.988;2.408;2023-02-26T06:45:41;101154.31;;;6.50;64.72
21290;BME280;10804;48.988;2.408;2023-02-26T06:48:08;101166.41;;;6.53;64.73
21290;BME280;10804;48.988;2.408;2023-02-26T06:50:35;101159.47;;;6.47;64.31
21290;BME280;10804;48.988;2.408;2023-02-26T06:53:02;101165.53;;;6.48;64.57
21290;BME280;10804;48.988;2.408;2023-02-26T06:55:30;101184.56;;;6.42;64.96
21290;BME280;10804;48.988;2.408;2023-02-26T06:57:58;101187.16;;;6.42;64.85
21290;BME280;10804;48.988;2.408;2023-02-26T07:00:27;101188.00;;;6.44;64.86
21290;BME280;10804;48.988;2.408;2023-02-26T07:02:54;101189.72;;;6.45;64.45
21290;BME280;10804;48.988;2.408;2023-02-26T07:05:22;101189.72;;;6.44;64.63
21290;BME280;10804;48.988;2.408;2023-02-26T07:07:49;101186.25;;;6.46;64.34
21290;BME280;10804;48.988;2.408;2023-02-26T07:10:16;101193.19;;;6.41;64.58
21290;BME280;10804;48.988;2.408;2023-02-26T07:12:46;101195.78;;;6.41;64.49
21290;BME280;10804;48.988;2.408;2023-02-26T07:15:16;101192.31;;;6.45;64.38
21290;BME280;10804;48.988;2.408;2023-02-26T07:17:43;101200.94;;;6.43;64.45
21290;BME280;10804;48.988;2.408;2023-02-26T07:20:11;101202.69;;;6.39;64.70
21290;BME280;10804;48.988;2.408;2023-02-26T07:22:39;101219.97;;;6.39;64.68
21290;BME280;10804;48.988;2.408;2023-02-26T07:25:07;101213.03;;;6.41;64.38
21290;BME280;10804;48.988;2.408;2023-02-26T07:27:34;101216.50;;;6.44;64.40
21290;BME280;10804;48.988;2.408;2023-02-26T07:30:04;101215.63;;;6.42;64.64
21290;BME280;10804;48.988;2.408;2023-02-26T07:32:33;101217.34;;;6.45;64.34
21290;BME280;10804;48.988;2.408;2023-02-26T07:35:01;101215.63;;;6.42;64.33
21290;BME280;10804;48.988;2.408;2023-02-26T07:37:29;101226.84;;;6.44;64.55
21290;BME280;10804;48.988;2.408;2023-02-26T07:39:56;101228.59;;;6.42;64.62
21290;BME280;10804;48.988;2.408;2023-02-26T07:42:23;101226.88;;;6.40;64.40
21290;BME280;10804;48.988;2.408;2023-02-26T07:44:52;101223.41;;;6.39;64.49
21290;BME280;10804;48.988;2.408;2023-02-26T07:47:19;101223.41;;;6.42;64.53
21290;BME280;10804;48.988;2.408;2023-02-26T07:49:48;101224.28;;;6.46;64.70
21290;BME280;10804;48.988;2.408;2023-02-26T07:52:15;101234.63;;;6.44;64.47
21290;BME280;10804;48.988;2.408;2023-02-26T07:54:42;101222.50;;;6.45;64.51
21290;BME280;10804;48.988;2.408;2023-02-26T07:57:10;101231.19;;;6.47;64.39
21290;BME280;10804;48.988;2.408;2023-02-26T07:59:37;101238.91;;;6.48;64.45
21290;BME280;10804;48.988;2.408;2023-02-26T08:02:04;101238.09;;;6.49;64.47
21290;BME280;10804;48.988;2.408;2023-02-26T08:04:32;101247.56;;;6.50;64.33
21290;BME280;10804;48.988;2.408;2023-02-26T08:07:01;101244.97;;;6.56;64.35
21290;BME280;10804;48.988;2.408;2023-02-26T08:09:28;101256.19;;;6.55;64.62
21290;BME280;10804;48.988;2.408;2023-02-26T08:11:56;101245.84;;;6.58;64.16
21290;BME280;10804;48.988;2.408;2023-02-26T08:14:23;101249.31;;;6.57;64.04
21290;BME280;10804;48.988;2.408;2023-02-26T08:16:50;101257.06;;;6.60;64.25
21290;BME280;10804;48.988;2.408;2023-02-26T08:19:18;101266.56;;;6.61;64.01
21290;BME280;10804;48.988;2.408;2023-02-26T08:21:45;101263.97;;;6.64;64.27
21290;BME280;10804;48.988;2.408;2023-02-26T08:24:14;101261.38;;;6.61;64.34
21290;BME280;10804;48.988;2.408;2023-02-26T08:26:41;101269.16;;;6.64;63.89
21290;BME280;10804;48.988;2.408;2023-02-26T08:29:11;101267.41;;;6.66;63.89
21290;BME280;10804;48.988;2.408;2023-02-26T08:31:38;101273.47;;;6.65;64.27
21290;BME280;10804;48.988;2.408;2023-02-26T08:34:06;101273.44;;;6.71;63.81
21290;BME280;10804;48.988;2.408;2023-02-26T08:36:33;101279.50;;;6.70;63.79
21290;BME280;10804;48.988;2.408;2023-02-26T08:39:00;101276.06;;;6.74;63.72
21290;BME280;10804;48.988;2.408;2023-02-26T08:41:29;101290.75;;;6.72;64.06
21290;BME280;10804;48.988;2.408;2023-02-26T08:43:58;101296.78;;;6.76;64.01
21290;BME280;10804;48.988;2.408;2023-02-26T08:46:26;101271.69;;;6.79;63.68
21290;BME280;10804;48.988;2.408;2023-02-26T08:48:53;101287.25;;;6.82;63.57
21290;BME280;10804;48.988;2.408;2023-02-26T08:51:20;101292.44;;;6.82;63.65
21290;BME280;10804;48.988;2.408;2023-02-26T08:53:48;101286.41;;;6.80;63.59
21290;BME280;10804;48.988;2.408;2023-02-26T08:56:16;101292.44;;;6.85;63.74
21290;BME280;10804;48.988;2.408;2023-02-26T08:58:45;101299.34;;;6.89;63.33
21290;BME280;10804;48.988;2.408;2023-02-26T09:01:12;101304.53;;;6.88;63.39
21290;BME280;10804;48.988;2.408;2023-02-26T09:03:40;101307.97;;;6.91;63.54
21290;BME280;10804;48.988;2.408;2023-02-26T09:06:07;101308.84;;;6.92;63.37
21290;BME280;10804;48.988;2.408;2023-02-26T09:08:34;101314.88;;;6.92;63.42
21290;BME280;10804;48.988;2.408;2023-02-26T09:11:02;101311.44;;;6.96;63.28
21290;BME280;10804;48.988;2.408;2023-02-26T09:13:30;101314.88;;;7.01;63.46
21290;BME280;10804;48.988;2.408;2023-02-26T09:15:59;101320.06;;;7.01;63.17
21290;BME280;10804;48.988;2.408;2023-02-26T09:18:26;101337.34;;;7.05;63.31
21290;BME280;10804;48.988;2.408;2023-02-26T09:20:54;101320.91;;;7.11;62.91
21290;BME280;10804;48.988;2.408;2023-02-26T09:23:21;101326.09;;;7.11;63.18
21290;BME280;10804;48.988;2.408;2023-02-26T09:25:51;101316.59;;;7.11;62.83
21290;BME280;10804;48.988;2.408;2023-02-26T09:28:20;101336.47;;;7.15;62.86
21290;BME280;10804;48.988;2.408;2023-02-26T09:30:50;101331.28;;;7.18;62.80
21290;BME280;10804;48.988;2.408;2023-02-26T09:33:19;101328.66;;;7.20;63.19
21290;BME280;10804;48.988;2.408;2023-02-26T09:35:47;101345.94;;;7.22;62.86
21290;BME280;10804;48.988;2.408;2023-02-26T09:38:15;101348.56;;;7.24;62.79
21290;BME280;10804;48.988;2.408;2023-02-26T09:40:45;101344.19;;;7.30;62.52
21290;BME280;10804;48.988;2.408;2023-02-26T09:46:22;101350.25;;;7.34;62.57
21290;BME280;10804;48.988;2.408;2023-02-26T09:49:02;101345.91;;;7.37;62.31
21290;BME280;10804;48.988;2.408;2023-02-26T09:51:33;101351.09;;;7.40;62.54
21290;BME280;10804;48.988;2.408;2023-02-26T09:54:05;101351.09;;;7.42;62.39
21290;BME280;10804;48.988;2.408;2023-02-26T09:56:38;101352.81;;;7.43;62.51
21290;BME280;10804;48.988;2.408;2023-02-26T09:59:08;101337.22;;;7.47;62.56
21290;BME280;10804;48.988;2.408;2023-02-26T10:01:41;101352.81;;;7.50;62.04
21290;BME280;10804;48.988;2.408;2023-02-26T10:04:17;101349.34;;;7.53;62.33
21290;BME280;10804;48.988;2.408;2023-02-26T10:06:57;101353.63;;;7.56;62.25
21290;BME280;10804;48.988;2.408;2023-02-26T10:09:33;101351.03;;;7.62;62.36
21290;BME280;10804;48.988;2.408;2023-02-26T10:12:06;101364.84;;;7.63;62.57
21290;BME280;10804;48.988;2.408;2023-02-26T10:14:40;101363.09;;;7.68;62.27
21290;BME280;10804;48.988;2.408;2023-02-26T10:17:17;101372.59;;;7.73;62.35
21290;BME280;10804;48.988;2.408;2023-02-26T10:19:51;101380.38;;;7.78;62.27
21290;BME280;10804;48.988;2.408;2023-02-26T10:22:24;101373.44;;;7.83;61.93
21290;BME280;10804;48.988;2.408;2023-02-26T10:24:57;101373.44;;;7.83;62.57
21290;BME280;10804;48.988;2.408;2023-02-26T10:27:36;101377.75;;;7.85;62.56
21290;BME280;10804;48.988;2.408;2023-02-26T10:30:11;101374.31;;;7.82;62.36
21290;BME280;10804;48.988;2.408;2023-02-26T10:32:47;101390.75;;;7.87;62.68
21290;BME280;10804;48.988;2.408;2023-02-26T10:35:19;101385.53;;;7.90;62.43
21290;BME280;10804;48.988;2.408;2023-02-26T10:37:53;101386.38;;;7.95;62.83
21290;BME280;10804;48.988;2.408;2023-02-26T10:40:25;101392.41;;;7.98;61.91
21290;BME280;10804;48.988;2.408;2023-02-26T10:42:58;101393.25;;;8.02;62.01
21290;BME280;10804;48.988;2.408;2023-02-26T10:45:36;101393.25;;;8.06;62.38
21290;BME280;10804;48.988;2.408;2023-02-26T10:48:19;101401.00;;;8.11;61.73
21290;BME280;10804;48.988;2.408;2023-02-26T10:50:53;101394.03;;;8.16;61.69
21290;BME280;10804;48.988;2.408;2023-02-26T10:53:23;101394.03;;;8.17;61.67
21290;BME280;10804;48.988;2.408;2023-02-26T10:55:54;101397.50;;;8.21;61.21
21290;BME280;10804;48.988;2.408;2023-02-26T10:58:26;101398.38;;;8.26;61.75
21290;BME280;10804;48.988;2.408;2023-02-26T11:00:55;101405.25;;;8.30;61.03
21290;BME280;10804;48.988;2.408;2023-02-26T11:03:29;101402.63;;;8.36;60.43
21290;BME280;10804;48.988;2.408;2023-02-26T11:06:00;101386.16;;;8.40;60.42
21290;BME280;10804;48.988;2.408;2023-02-26T11:08:31;101395.66;;;8.42;60.83
21290;BME280;10804;48.988;2.408;2023-02-26T11:11:01;101393.00;;;8.48;59.60
21290;BME280;10804;48.988;2.408;2023-02-26T11:13:32;101388.66;;;8.53;59.30
21290;BME280;10804;48.988;2.408;2023-02-26T11:16:02;101399.03;;;8.58;59.11
21290;BME280;10804;48.988;2.408;2023-02-26T11:18:33;101390.31;;;8.62;59.40
21290;BME280;10804;48.988;2.408;2023-02-26T11:21:05;101395.50;;;8.65;59.92
21290;BME280;10804;48.988;2.408;2023-02-26T11:23:33;101400.66;;;8.69;60.15
21290;BME280;10804;48.988;2.408;2023-02-26T11:26:05;101391.94;;;8.75;60.12
21290;BME280;10804;48.988;2.408;2023-02-26T11:28:36;101393.63;;;8.82;60.51
21290;BME280;10804;48.988;2.408;2023-02-26T11:31:05;101399.66;;;8.87;60.68
21290;BME280;10804;48.988;2.408;2023-02-26T11:33:36;101397.00;;;8.93;60.94
21290;BME280;10804;48.988;2.408;2023-02-26T11:36:09;101383.94;;;9.00;61.17
21290;BME280;10804;48.988;2.408;2023-02-26T11:38:37;101393.41;;;9.06;61.21
21290;BME280;10804;48.988;2.408;2023-02-26T11:41:05;101392.50;;;9.13;60.93
21290;BME280;10804;48.988;2.408;2023-02-26T11:43:35;101382.91;;;9.18;60.48
21290;BME280;10804;48.988;2.408;2023-02-26T11:46:04;101377.66;;;9.24;60.92
21290;BME280;10804;48.988;2.408;2023-02-26T11:48:38;101387.97;;;9.31;60.81
21290;BME280;10804;48.988;2.408;2023-02-26T11:51:11;101393.13;;;9.39;60.76
21290;BME280;10804;48.988;2.408;2023-02-26T11:53:43;101385.22;;;9.45;60.25
21290;BME280;10804;48.988;2.408;2023-02-26T11:56:24;101381.69;;;9.52;60.45
21290;BME280;10804;48.988;2.408;2023-02-26T11:58:53;101385.94;;;9.59;60.44
21290;BME280;10804;48.988;2.408;2023-02-26T12:01:26;101381.50;;;9.65;59.71
21290;BME280;10804;48.988;2.408;2023-02-26T12:03:58;101373.63;;;9.73;60.08
21290;BME280;10804;48.988;2.408;2023-02-26T12:06:27;101387.41;;;9.81;59.47
21290;BME280;10804;48.988;2.408;2023-02-26T12:08:55;101382.13;;;9.87;59.29
21290;BME280;10804;48.988;2.408;2023-02-26T12:11:42;101386.41;;;9.94;59.64
21290;BME280;10804;48.988;2.408;2023-02-26T12:17:19;101386.16;;;10.13;58.81
21290;BME280;10804;48.988;2.408;2023-02-26T12:19:52;101386.94;;;10.20;58.60
21290;BME280;10804;48.988;2.408;2023-02-26T12:22:33;101381.59;;;10.29;58.50
21290;BME280;10804;48.988;2.408;2023-02-26T12:25:21;101379.72;;;10.37;58.65
21290;BME280;10804;48.988;2.408;2023-02-26T12:28:05;101374.44;;;10.44;58.34
21290;BME280;10804;48.988;2.408;2023-02-26T12:30:47;101380.38;;;10.54;57.71
21290;BME280;10804;48.988;2.408;2023-02-26T12:33:29;101381.97;;;10.61;57.71
21290;BME280;10804;48.988;2.408;2023-02-26T12:36:13;101380.97;;;10.69;57.34
21290;BME280;10804;48.988;2.408;2023-02-26T12:38:51;101374.78;;;10.76;57.25
21290;BME280;10804;48.988;2.408;2023-02-26T12:41:50;101374.59;;;10.88;57.53
21290;BME280;10804;48.988;2.408;2023-02-26T12:44:40;101372.72;;;10.96;56.76
21290;BME280;10804;48.988;2.408;2023-02-26T12:47:23;101375.13;;;11.07;56.74
21290;BME280;10804;48.988;2.408;2023-02-26T12:50:04;101369.75;;;11.16;56.26
21290;BME280;10804;48.988;2.408;2023-02-26T12:52:45;101369.59;;;11.25;56.32
21290;BME280;10804;48.988;2.408;2023-02-26T12:55:25;101379.88;;;11.34;55.87
21290;BME280;10804;48.988;2.408;2023-02-26T12:58:10;101366.69;;;11.41;56.21
21290;BME280;10804;48.988;2.408;2023-02-26T13:00:59;101363.84;;;11.51;56.00
21290;BME280;10804;48.988;2.408;2023-02-26T13:03:51;101374.16;;;11.61;56.00
21290;BME280;10804;48.988;2.408;2023-02-26T13:06:38;101378.34;;;11.69;55.54
21290;BME280;10804;48.988;2.408;2023-02-26T13:09:17;101380.81;;;11.76;55.47
21290;BME280;10804;48.988;2.408;2023-02-26T13:11:58;101389.34;;;11.84;55.14
21290;BME280;10804;48.988;2.408;2023-02-26T13:14:36;101373.50;;;11.90;55.04
21290;BME280;10804;48.988;2.408;2023-02-26T13:17:12;101383.84;;;11.96;54.73
21290;BME280;10804;48.988;2.408;2023-02-26T13:19:46;101392.47;;;12.01;54.03
21290;BME280;10804;48.988;2.408;2023-02-26T13:22:19;101380.19;;;12.05;54.22
21290;BME280;10804;48.988;2.408;2023-02-26T13:24:52;101385.34;;;12.08;53.98
21290;BME280;10804;48.988;2.408;2023-02-26T13:27:25;101383.59;;;12.08;53.85
21290;BME280;10804;48.988;2.408;2023-02-26T13:30:05;101383.59;;;12.08;53.55
21290;BME280;10804;48.988;2.408;2023-02-26T13:32:39;101374.00;;;12.09;52.92